Time;durP1;ratioP1;P1;durP2;ratioP2;P2;SDS_P1;SDS_P2;PMS_P1;PMS_P2;Temp;Humidity;BMP_temperature;BMP_pressure;BME280_temperature;BME280_humidity;BME280_pressure;Samples;Min_cycle;Max_cycle;Signal;HPM_P1;HPM_P2
2022/03/10 00:01:30;;;;;;;;;;;;;;;11.96;29.49;99651.75;4498511;31;34277;-83
2022/03/10 00:03:57;;;;;;;;;;;;;;;12.14;29.14;99660.69;4486743;31;33886;-84
2022/03/10 00:06:24;;;;;;;;;;;;;;;11.70;29.44;99662.56;4497968;31;34151;-84
2022/03/10 00:08:51;;;;;;;;;;;;;;;11.32;30.07;99661.91;4497876;31;34157;-84
2022/03/10 00:11:19;;;;;;;;;;;;;;;10.99;30.60;99670.84;4498310;31;34148;-84
2022/03/10 00:13:46;;;;;;;;;;;;;;;11.39;29.78;99666.37;4498059;31;34424;-83
2022/03/10 00:16:13;;;;;;;;;;;;;;;11.37;29.72;99668.97;4498423;31;34336;-84
2022/03/10 00:18:43;;;;;;;;;;;;;;;11.42;29.75;99666.44;4497429;31;33634;-83
2022/03/10 00:21:10;;;;;;;;;;;;;;;11.37;29.48;99670.69;4498256;31;34187;-82
2022/03/10 00:23:37;;;;;;;;;;;;;;;11.26;29.70;99665.28;4497927;31;33976;-83
2022/03/10 00:26:04;;;;;;;;;;;;;;;11.33;29.66;99676.66;4496991;31;35077;-83
2022/03/10 00:28:33;;;;;;;;;;;;;;;10.95;29.83;99674.25;4497746;31;33536;-83
2022/03/10 00:31:00;;;;;;;;;;;;;;;10.62;30.22;99683.06;4490333;31;34249;-83
2022/03/10 00:33:28;;;;;;;;;;;;;;;10.73;30.20;99682.44;4498005;31;34442;-82
2022/03/10 00:35:55;;;;;;;;;;;;;;;10.90;29.88;99686.22;4497760;31;33789;-81
2022/03/10 00:38:22;;;;;;;;;;;;;;;11.12;29.51;99693.56;4497492;31;33670;-83
2022/03/10 00:40:49;;;;;;;;;;;;;;;11.16;29.24;99699.69;4497649;31;33818;-83
2022/03/10 00:43:17;;;;;;;;;;;;;;;11.17;29.17;99712.72;4497755;31;32968;-82
2022/03/10 00:45:44;;;;;;;;;;;;;;;10.46;29.86;99706.94;4497272;31;34062;-82
2022/03/10 00:48:11;;;;;;;;;;;;;;;10.35;30.10;99718.78;4497676;31;34250;-84
2022/03/10 00:50:39;;;;;;;;;;;;;;;10.66;29.77;99717.72;4497887;31;34866;-83
2022/03/10 00:53:06;;;;;;;;;;;;;;;10.83;29.50;99705.97;4497535;31;35359;-83
2022/03/10 00:55:33;;;;;;;;;;;;;;;11.02;29.23;99712.41;4497397;31;34278;-81
2022/03/10 00:58:00;;;;;;;;;;;;;;;11.11;29.10;99710.00;4491279;31;33609;-83
2022/03/10 01:00:29;;;;;;;;;;;;;;;10.94;29.35;99727.81;4497475;31;34193;-81
2022/03/10 01:02:57;;;;;;;;;;;;;;;10.56;29.68;99727.00;4497280;31;34160;-82
2022/03/10 01:05:24;;;;;;;;;;;;;;;10.71;29.56;99737.72;4490092;31;34870;-82
2022/03/10 01:07:51;;;;;;;;;;;;;;;10.52;29.69;99748.53;4497341;31;34054;-82
2022/03/10 01:10:19;;;;;;;;;;;;;;;10.77;29.56;99749.06;4499349;31;34327;-82
2022/03/10 01:12:46;;;;;;;;;;;;;;;10.66;30.53;99748.84;4497303;31;35125;-82
2022/03/10 01:15:20;;;;;;;;;;;;;;;10.03;33.80;99749.94;4495990;31;33941;-82
2022/03/10 01:17:48;;;;;;;;;;;;;;;10.33;31.89;99755.00;4494110;31;33293;-82
2022/03/10 01:20:16;;;;;;;;;;;;;;;10.14;32.34;99758.84;4497534;31;34121;-82
2022/03/10 01:22:43;;;;;;;;;;;;;;;10.24;32.71;99765.16;4499243;31;34036;-82
2022/03/10 01:25:10;;;;;;;;;;;;;;;10.18;33.41;99757.22;4499304;31;33993;-82
2022/03/10 01:27:38;;;;;;;;;;;;;;;10.32;33.56;99757.59;4498915;31;34203;-82
2022/03/10 01:30:05;;;;;;;;;;;;;;;10.05;34.22;99748.28;4499569;31;35009;-81
2022/03/10 01:32:34;;;;;;;;;;;;;;;10.44;33.61;99747.50;4499711;31;34540;-82
2022/03/10 01:35:02;;;;;;;;;;;;;;;10.56;33.44;99752.94;4498219;31;35291;-83
2022/03/10 01:37:29;;;;;;;;;;;;;;;10.58;33.72;99748.69;4499331;31;33418;-82
2022/03/10 01:39:56;;;;;;;;;;;;;;;10.32;34.28;99758.47;4499825;31;34242;-82
2022/03/10 01:42:23;;;;;;;;;;;;;;;10.29;34.56;99753.19;4499338;31;34284;-82
2022/03/10 01:44:53;;;;;;;;;;;;;;;10.69;33.82;99764.47;4499498;31;35087;-83
2022/03/10 01:47:21;;;;;;;;;;;;;;;10.62;33.83;99766.06;4498899;31;34375;-83
2022/03/10 01:49:50;;;;;;;;;;;;;;;10.36;34.30;99775.81;4499216;31;34221;-82
2022/03/10 01:52:18;;;;;;;;;;;;;;;10.47;34.41;99781.25;4496782;31;34015;-81
2022/03/10 01:54:45;;;;;;;;;;;;;;;10.16;35.18;99777.06;4498535;31;35183;-83
2022/03/10 01:57:13;;;;;;;;;;;;;;;9.92;36.04;99773.00;4489447;31;33577;-82
2022/03/10 01:59:40;;;;;;;;;;;;;;;9.86;36.62;99779.75;4485834;31;33954;-82
2022/03/10 02:02:08;;;;;;;;;;;;;;;10.26;35.77;99788.53;4498299;31;34458;-82
2022/03/10 02:04:36;;;;;;;;;;;;;;;10.64;34.74;99784.22;4498602;31;34257;-82
2022/03/10 02:07:04;;;;;;;;;;;;;;;10.79;34.20;99787.16;4494278;31;33048;-81
2022/03/10 02:12:37;;;;;;;;;;;;;;;10.57;34.79;99779.75;4464219;32;34744;-82
2022/03/10 02:18:07;;;;;;;;;;;;;;;10.75;35.01;99794.84;4485423;31;34252;-82
2022/03/10 02:20:35;;;;;;;;;;;;;;;10.85;34.99;99802.00;4490648;31;33865;-82
2022/03/10 02:23:03;;;;;;;;;;;;;;;10.82;35.35;99797.59;4485741;31;34265;-82
2022/03/10 02:25:30;;;;;;;;;;;;;;;10.94;35.31;99796.97;4499310;31;34287;-82
2022/03/10 02:27:58;;;;;;;;;;;;;;;11.13;35.05;99804.31;4499174;31;33494;-82
2022/03/10 02:30:28;;;;;;;;;;;;;;;11.25;34.63;99811.50;4498913;31;33495;-81
2022/03/10 02:32:56;;;;;;;;;;;;;;;10.98;35.21;99814.38;4498743;31;35292;-82
2022/03/10 02:35:23;;;;;;;;;;;;;;;11.02;35.74;99816.19;4498976;31;34295;-81
2022/03/10 02:37:51;;;;;;;;;;;;;;;10.96;35.50;99824.72;4499062;31;33548;-81
2022/03/10 02:40:19;;;;;;;;;;;;;;;11.10;35.27;99822.44;4498334;31;34958;-82
2022/03/10 02:42:46;;;;;;;;;;;;;;;10.83;35.91;99819.22;4498588;31;34307;-82
2022/03/10 02:45:13;;;;;;;;;;;;;;;11.22;35.23;99823.53;4499547;31;34472;-82
2022/03/10 02:47:41;;;;;;;;;;;;;;;11.43;34.72;99827.41;4498347;31;33845;-82
2022/03/10 02:50:09;;;;;;;;;;;;;;;11.33;34.99;99822.91;4499306;31;34343;-82
2022/03/10 02:52:36;;;;;;;;;;;;;;;11.54;34.52;99819.84;4498137;31;35146;-82
2022/03/10 02:55:07;;;;;;;;;;;;;;;11.07;35.47;99822.38;4499058;31;34115;-82
2022/03/10 02:57:35;;;;;;;;;;;;;;;11.42;35.14;99827.41;4494834;31;32749;-82
2022/03/10 03:00:03;;;;;;;;;;;;;;;11.58;34.86;99823.38;4496592;31;34235;-82
2022/03/10 03:02:30;;;;;;;;;;;;;;;11.68;34.72;99833.97;4491380;31;35305;-82
2022/03/10 03:04:57;;;;;;;;;;;;;;;11.59;35.11;99836.41;4499424;31;35292;-82
2022/03/10 03:07:24;;;;;;;;;;;;;;;11.81;34.71;99842.84;4498464;31;34232;-82
2022/03/10 03:09:52;;;;;;;;;;;;;;;11.84;34.73;99839.47;4483567;32;34471;-82
2022/03/10 03:12:19;;;;;;;;;;;;;;;11.82;34.89;99848.91;4489717;31;34145;-83
2022/03/10 03:14:46;;;;;;;;;;;;;;;11.97;34.68;99844.06;4498315;31;34186;-82
2022/03/10 03:17:13;;;;;;;;;;;;;;;11.91;35.02;99841.34;4498565;31;33473;-81
2022/03/10 03:19:41;;;;;;;;;;;;;;;11.74;35.66;99853.09;4498231;31;34094;-82
2022/03/10 03:22:08;;;;;;;;;;;;;;;11.87;35.64;99850.81;4498457;31;34069;-82
2022/03/10 03:24:36;;;;;;;;;;;;;;;11.41;36.62;99864.59;4498813;31;34514;-81
2022/03/10 03:27:03;;;;;;;;;;;;;;;11.33;37.11;99858.38;4498866;31;33032;-81
2022/03/10 03:29:30;;;;;;;;;;;;;;;11.71;36.51;99853.94;4498652;31;33786;-82
2022/03/10 03:31:57;;;;;;;;;;;;;;;11.88;36.28;99864.66;4497578;31;33918;-81
2022/03/10 03:34:25;;;;;;;;;;;;;;;11.99;36.03;99864.87;4498463;31;34195;-81
2022/03/10 03:36:52;;;;;;;;;;;;;;;11.89;36.16;99867.31;4498940;31;34075;-82
2022/03/10 03:39:19;;;;;;;;;;;;;;;11.62;36.94;99883.19;4498585;31;34110;-82
2022/03/10 03:41:46;;;;;;;;;;;;;;;11.56;37.11;99880.50;4497363;31;34845;-82
2022/03/10 03:44:14;;;;;;;;;;;;;;;11.70;36.82;99888.53;4498733;31;34530;-82
2022/03/10 03:46:42;;;;;;;;;;;;;;;10.95;38.74;99893.03;4498185;31;33651;-83
2022/03/10 03:49:10;;;;;;;;;;;;;;;11.58;37.24;99891.75;4498475;31;35026;-82
2022/03/10 03:51:38;;;;;;;;;;;;;;;10.88;38.64;99906.69;4491838;31;34905;-81
2022/03/10 03:54:06;;;;;;;;;;;;;;;11.22;37.82;99906.59;4491982;31;35052;-81
2022/03/10 03:56:34;;;;;;;;;;;;;;;11.48;37.13;99909.72;4498548;31;34703;-81
2022/03/10 03:59:01;;;;;;;;;;;;;;;11.10;37.74;99921.03;4498148;31;33667;-82
2022/03/10 04:01:28;;;;;;;;;;;;;;;11.09;37.54;99923.59;4498164;31;34271;-82
2022/03/10 04:03:56;;;;;;;;;;;;;;;10.42;38.40;99917.69;4496344;31;35905;-83
2022/03/10 04:06:24;;;;;;;;;;;;;;;9.93;39.43;99930.19;4498390;31;34463;-82
2022/03/10 04:08:51;;;;;;;;;;;;;;;9.75;40.05;99938.31;4497983;31;33747;-82
2022/03/10 04:11:18;;;;;;;;;;;;;;;10.18;39.44;99943.78;4498688;31;34203;-82
2022/03/10 04:13:46;;;;;;;;;;;;;;;10.36;38.89;99936.53;4497716;31;35279;-82
2022/03/10 04:16:17;;;;;;;;;;;;;;;10.07;39.62;99940.91;4498585;31;33436;-82
2022/03/10 04:18:45;;;;;;;;;;;;;;;8.75;41.99;99949.03;4497490;31;34116;-82
2022/03/10 04:21:12;;;;;;;;;;;;;;;9.26;41.12;99951.50;4484682;31;35285;-82
2022/03/10 04:23:39;;;;;;;;;;;;;;;9.62;40.32;99956.91;4492931;31;35350;-83
2022/03/10 04:26:06;;;;;;;;;;;;;;;10.05;39.25;99957.25;4498467;31;33217;-83
2022/03/10 04:28:33;;;;;;;;;;;;;;;9.42;40.58;99965.78;4496908;31;34261;-82
2022/03/10 04:31:01;;;;;;;;;;;;;;;9.93;39.75;99965.56;4497985;31;34318;-83
2022/03/10 04:33:28;;;;;;;;;;;;;;;9.56;40.44;99961.91;4497325;31;34545;-82
2022/03/10 04:35:56;;;;;;;;;;;;;;;9.16;41.43;99955.50;4498079;31;33279;-84
2022/03/10 04:38:24;;;;;;;;;;;;;;;8.81;42.49;99963.87;4497629;31;35003;-83
2022/03/10 04:40:51;;;;;;;;;;;;;;;8.50;43.03;99968.91;4498213;31;35279;-83
2022/03/10 04:43:19;;;;;;;;;;;;;;;8.32;43.67;99976.00;4497128;31;34316;-82
2022/03/10 04:45:46;;;;;;;;;;;;;;;9.16;41.58;99978.78;4499482;31;33440;-84
2022/03/10 04:48:13;;;;;;;;;;;;;;;8.15;43.40;99988.34;4495172;31;33732;-84
2022/03/10 04:50:40;;;;;;;;;;;;;;;8.59;42.79;99985.53;4499988;31;34405;-83
2022/03/10 04:53:07;;;;;;;;;;;;;;;9.19;41.42;99991.84;4499442;31;34109;-83
2022/03/10 04:55:35;;;;;;;;;;;;;;;7.84;44.27;100008.69;4499775;31;34529;-83
2022/03/10 04:58:02;;;;;;;;;;;;;;;8.72;42.51;100001.53;4499366;31;35083;-81
2022/03/10 05:00:29;;;;;;;;;;;;;;;9.03;41.97;100005.12;4486892;31;35155;-83
2022/03/10 05:02:57;;;;;;;;;;;;;;;9.80;40.53;100012.66;4499761;31;34021;-81
2022/03/10 05:05:25;;;;;;;;;;;;;;;10.02;39.57;100006.37;4499462;31;33454;-82
2022/03/10 05:07:52;;;;;;;;;;;;;;;9.77;40.19;100010.84;4498887;31;34025;-83
2022/03/10 05:10:19;;;;;;;;;;;;;;;9.50;40.69;100010.91;4499845;31;34564;-82
2022/03/10 05:12:52;;;;;;;;;;;;;;;10.38;38.89;100011.72;4499366;31;34496;-83
2022/03/10 05:15:20;;;;;;;;;;;;;;;10.42;38.58;100016.19;4498617;31;33734;-82
2022/03/10 05:17:47;;;;;;;;;;;;;;;10.92;36.99;100021.78;4497139;31;34272;-82
2022/03/10 05:20:14;;;;;;;;;;;;;;;10.53;36.99;100027.72;4499264;31;34471;-81
2022/03/10 05:22:45;;;;;;;;;;;;;;;8.97;39.30;100035.94;4490532;31;34193;-82
2022/03/10 05:25:13;;;;;;;;;;;;;;;10.09;37.15;100029.03;4499716;31;33257;-81
2022/03/10 05:27:41;;;;;;;;;;;;;;;10.56;36.62;100037.25;4498960;31;34350;-80
2022/03/10 05:30:09;;;;;;;;;;;;;;;11.03;34.64;100035.03;4496583;31;34291;-81
2022/03/10 05:32:38;;;;;;;;;;;;;;;10.06;36.11;100045.38;4499726;31;34275;-82
2022/03/10 05:35:06;;;;;;;;;;;;;;;10.28;35.92;100044.31;4499852;31;34492;-82
2022/03/10 05:37:35;;;;;;;;;;;;;;;10.14;35.30;100049.06;4497669;31;34013;-81
2022/03/10 05:40:05;;;;;;;;;;;;;;;9.81;35.10;100048.97;4499592;31;35778;-82
2022/03/10 05:42:33;;;;;;;;;;;;;;;9.22;35.10;100046.28;4493624;31;33958;-82
2022/03/10 05:45:00;;;;;;;;;;;;;;;9.49;34.55;100053.16;4498748;31;32454;-84
2022/03/10 05:47:27;;;;;;;;;;;;;;;9.61;33.48;100058.69;4499515;31;34676;-82
2022/03/10 05:49:54;;;;;;;;;;;;;;;10.32;32.58;100055.62;4499774;31;33981;-82
2022/03/10 05:52:21;;;;;;;;;;;;;;;8.33;34.11;100068.16;4499009;31;33992;-82
2022/03/10 05:54:55;;;;;;;;;;;;;;;9.13;33.57;100066.69;4499189;31;33737;-84
2022/03/10 05:57:22;;;;;;;;;;;;;;;9.71;32.81;100062.47;4498959;31;34123;-84
2022/03/10 05:59:49;;;;;;;;;;;;;;;9.92;31.99;100062.22;4489946;31;34418;-84
2022/03/10 06:02:17;;;;;;;;;;;;;;;9.65;32.00;100070.91;4499311;31;35182;-82
2022/03/10 06:04:48;;;;;;;;;;;;;;;10.01;31.04;100078.03;4487306;31;34412;-82
2022/03/10 06:07:16;;;;;;;;;;;;;;;10.67;30.42;100077.34;4499010;31;34040;-83
2022/03/10 06:09:44;;;;;;;;;;;;;;;11.04;29.87;100084.37;4499603;31;34329;-83
2022/03/10 06:12:13;;;;;;;;;;;;;;;11.05;29.51;100080.06;4496316;31;33909;-83
2022/03/10 06:14:41;;;;;;;;;;;;;;;10.47;30.31;100081.97;4488217;31;32920;-86
2022/03/10 06:17:08;;;;;;;;;;;;;;;9.01;31.53;100094.69;4499583;31;33770;-80
2022/03/10 06:19:35;;;;;;;;;;;;;;;9.75;30.64;100091.09;4499020;31;35290;-80
2022/03/10 06:22:03;;;;;;;;;;;;;;;10.44;29.46;100093.12;4499133;31;34175;-80
2022/03/10 06:24:30;;;;;;;;;;;;;;;9.89;29.63;100088.91;4498451;31;33436;-80
2022/03/10 06:26:57;;;;;;;;;;;;;;;9.51;29.92;100098.09;4498968;31;35183;-80
2022/03/10 06:29:24;;;;;;;;;;;;;;;10.46;29.30;100094.06;4499397;31;34432;-80
2022/03/10 06:31:52;;;;;;;;;;;;;;;10.06;29.45;100099.78;4499120;31;34437;-81
2022/03/10 06:34:20;;;;;;;;;;;;;;;9.73;30.15;100104.81;4499412;31;33968;-80
2022/03/10 06:36:48;;;;;;;;;;;;;;;10.15;29.71;100107.84;4499429;31;34923;-82
2022/03/10 06:39:15;;;;;;;;;;;;;;;10.53;29.42;100107.19;4499246;31;34273;-81
2022/03/10 06:41:42;;;;;;;;;;;;;;;10.65;28.91;100115.31;4484648;31;34885;-83
2022/03/10 06:44:09;;;;;;;;;;;;;;;10.29;29.04;100120.34;4499404;31;34361;-82
2022/03/10 06:46:36;;;;;;;;;;;;;;;9.78;29.81;100123.09;4499075;31;34587;-80
2022/03/10 06:49:04;;;;;;;;;;;;;;;8.68;30.93;100128.94;4499368;31;34010;-80
2022/03/10 06:51:31;;;;;;;;;;;;;;;9.92;29.63;100119.19;4499433;31;34351;-80
2022/03/10 06:53:58;;;;;;;;;;;;;;;9.15;30.35;100131.41;4499524;31;33257;-84
2022/03/10 06:56:25;;;;;;;;;;;;;;;9.68;30.04;100130.56;4499105;31;35122;-80
2022/03/10 06:58:53;;;;;;;;;;;;;;;9.48;29.80;100129.94;4499475;31;35167;-80
2022/03/10 07:01:20;;;;;;;;;;;;;;;9.18;30.60;100137.56;4499247;31;34428;-80
2022/03/10 07:03:48;;;;;;;;;;;;;;;9.66;29.25;100141.69;4499185;31;33408;-81
2022/03/10 07:06:15;;;;;;;;;;;;;;;9.87;29.07;100144.09;4499423;31;35040;-81
2022/03/10 07:08:42;;;;;;;;;;;;;;;10.24;28.94;100149.56;4498471;31;35152;-81
2022/03/10 07:11:09;;;;;;;;;;;;;;;8.99;30.70;100159.31;4499101;31;33977;-80
2022/03/10 07:13:37;;;;;;;;;;;;;;;8.37;31.27;100162.19;4499436;31;33532;-80
2022/03/10 07:16:05;;;;;;;;;;;;;;;8.22;31.84;100159.88;4499104;31;34541;-80
2022/03/10 07:18:32;;;;;;;;;;;;;;;8.61;31.15;100168.31;4499110;31;34536;-82
2022/03/10 07:21:00;;;;;;;;;;;;;;;8.26;31.41;100170.44;4499137;31;35120;-84
2022/03/10 07:23:27;;;;;;;;;;;;;;;9.12;30.29;100172.69;4495419;31;34482;-82
2022/03/10 07:25:54;;;;;;;;;;;;;;;8.91;29.76;100170.22;4488368;31;33739;-81
2022/03/10 07:28:22;;;;;;;;;;;;;;;9.68;29.61;100171.09;4483586;32;33668;-80
2022/03/10 07:30:49;;;;;;;;;;;;;;;9.91;29.16;100175.31;4483507;32;33941;-81
2022/03/10 07:33:16;;;;;;;;;;;;;;;9.32;29.69;100186.28;4488118;31;33954;-81
2022/03/10 07:36:02;;;;;;;;;;;;;;;9.14;30.66;100177.09;4499303;31;34343;-81
2022/03/10 07:38:29;;;;;;;;;;;;;;;9.74;29.88;100173.91;4498438;31;34294;-80
2022/03/10 07:40:58;;;;;;;;;;;;;;;9.35;30.01;100182.09;4499186;31;34839;-80
2022/03/10 07:43:25;;;;;;;;;;;;;;;9.60;29.74;100188.09;4499324;31;34069;-80
2022/03/10 07:45:53;;;;;;;;;;;;;;;9.14;30.41;100182.25;4498548;31;34135;-80
2022/03/10 07:48:21;;;;;;;;;;;;;;;9.70;29.82;100178.09;4498909;31;34349;-80
2022/03/10 07:50:48;;;;;;;;;;;;;;;10.14;29.26;100185.50;4498685;31;34583;-80
2022/03/10 07:53:16;;;;;;;;;;;;;;;10.01;29.54;100176.50;4498413;31;33464;-80
2022/03/10 07:55:44;;;;;;;;;;;;;;;9.76;28.89;100174.81;4498433;31;33846;-80
2022/03/10 07:58:17;;;;;;;;;;;;;;;9.39;29.68;100190.84;4498738;31;34409;-80
2022/03/10 08:00:44;;;;;;;;;;;;;;;9.60;29.27;100194.16;4498905;31;34370;-80
2022/03/10 08:03:12;;;;;;;;;;;;;;;9.18;29.62;100183.25;4498754;31;33689;-80
2022/03/10 08:05:39;;;;;;;;;;;;;;;9.22;29.85;100191.16;4500701;31;34323;-80
2022/03/10 08:08:09;;;;;;;;;;;;;;;9.00;29.76;100193.81;4504038;31;35364;-80
2022/03/10 08:10:36;;;;;;;;;;;;;;;7.91;31.89;100207.78;4499098;31;35038;-80
2022/03/10 08:13:04;;;;;;;;;;;;;;;8.20;31.69;100196.00;4498544;31;34278;-81
2022/03/10 08:15:31;;;;;;;;;;;;;;;7.83;32.31;100200.53;4498433;31;35109;-80
2022/03/10 08:17:59;;;;;;;;;;;;;;;6.58;33.06;100213.28;4496992;31;34205;-80
2022/03/10 08:20:26;;;;;;;;;;;;;;;7.89;31.56;100204.25;4497520;31;34219;-80
2022/03/10 08:22:53;;;;;;;;;;;;;;;8.07;31.17;100203.22;4498432;31;34374;-80
2022/03/10 08:25:21;;;;;;;;;;;;;;;8.39;30.68;100192.47;4498612;31;34180;-80
2022/03/10 08:27:48;;;;;;;;;;;;;;;7.55;31.30;100207.16;4498477;31;34475;-80
2022/03/10 08:30:16;;;;;;;;;;;;;;;8.13;30.59;100204.34;4498384;31;34485;-80
2022/03/10 08:32:44;;;;;;;;;;;;;;;8.32;30.85;100207.63;4498436;31;34412;-80
2022/03/10 08:35:16;;;;;;;;;;;;;;;8.36;30.78;100207.81;4498645;31;34313;-81
2022/03/10 08:37:43;;;;;;;;;;;;;;;9.27;29.00;100193.91;4496967;31;34445;-80
2022/03/10 08:40:12;;;;;;;;;;;;;;;9.60;27.83;100196.75;4497053;31;34426;-82
2022/03/10 08:42:39;;;;;;;;;;;;;;;9.10;28.60;100190.75;4498071;31;34168;-80
2022/03/10 08:45:07;;;;;;;;;;;;;;;8.49;29.26;100178.19;4498315;31;34026;-81
2022/03/10 08:47:34;;;;;;;;;;;;;;;9.01;29.02;100185.22;4498233;31;33949;-85
2022/03/10 08:50:01;;;;;;;;;;;;;;;9.67;28.67;100190.94;4498080;31;34419;-85
2022/03/10 08:52:29;;;;;;;;;;;;;;;8.89;29.74;100177.03;4498018;31;33629;-81
2022/03/10 08:54:56;;;;;;;;;;;;;;;9.45;29.09;100181.59;4498402;31;33828;-81
2022/03/10 08:57:23;;;;;;;;;;;;;;;10.71;27.41;100186.37;4498236;31;34418;-81
2022/03/10 08:59:53;;;;;;;;;;;;;;;9.99;28.08;100172.94;4498098;31;34073;-81
2022/03/10 09:02:22;;;;;;;;;;;;;;;10.36;26.30;100180.16;4498408;31;33401;-81
2022/03/10 09:04:50;;;;;;;;;;;;;;;9.42;27.85;100190.97;4497684;31;34397;-80
2022/03/10 09:07:17;;;;;;;;;;;;;;;10.35;26.93;100180.13;4498130;31;34514;-81
2022/03/10 09:09:44;;;;;;;;;;;;;;;10.40;26.65;100189.78;4497813;31;34282;-81
2022/03/10 09:12:12;;;;;;;;;;;;;;;9.97;26.77;100195.34;4497847;31;34274;-81
2022/03/10 09:14:39;;;;;;;;;;;;;;;10.09;24.96;100189.69;4497842;31;34311;-81
2022/03/10 09:17:06;;;;;;;;;;;;;;;10.94;23.22;100196.53;4497787;31;35239;-81
2022/03/10 09:19:34;;;;;;;;;;;;;;;10.35;23.79;100193.09;4497516;31;34388;-81
2022/03/10 09:22:02;;;;;;;;;;;;;;;9.66;24.81;100204.72;4497727;31;33415;-81
2022/03/10 09:24:30;;;;;;;;;;;;;;;10.85;23.30;100204.06;4497347;31;35067;-81
2022/03/10 09:26:58;;;;;;;;;;;;;;;9.67;24.55;100215.97;4497509;31;34381;-80
2022/03/10 09:29:25;;;;;;;;;;;;;;;10.29;24.20;100203.28;4497420;31;34470;-81
2022/03/10 09:31:53;;;;;;;;;;;;;;;9.77;23.75;100214.53;4499939;31;33633;-84
2022/03/10 09:34:21;;;;;;;;;;;;;;;9.54;23.51;100225.00;4499501;31;35174;-82
2022/03/10 09:36:49;;;;;;;;;;;;;;;9.45;23.71;100224.72;4499943;31;35373;-81
2022/03/10 09:39:18;;;;;;;;;;;;;;;9.11;25.39;100223.53;4500268;31;34284;-81
2022/03/10 09:41:46;;;;;;;;;;;;;;;10.82;23.53;100206.56;4499747;31;34100;-81
2022/03/10 09:44:19;;;;;;;;;;;;;;;9.65;23.86;100217.59;4499989;31;34957;-81
2022/03/10 09:46:49;;;;;;;;;;;;;;;8.38;25.21;100220.84;4498410;31;34506;-81
2022/03/10 09:49:17;;;;;;;;;;;;;;;8.99;24.42;100212.75;4499658;31;34494;-81
2022/03/10 09:51:45;;;;;;;;;;;;;;;9.68;24.30;100221.19;4498720;31;33929;-81
2022/03/10 09:54:12;;;;;;;;;;;;;;;8.69;24.62;100212.53;4498437;31;34196;-81
2022/03/10 09:56:43;;;;;;;;;;;;;;;9.49;24.00;100219.69;4499856;31;34200;-83
2022/03/10 09:59:10;;;;;;;;;;;;;;;9.75;23.06;100223.16;4499758;31;33777;-81
2022/03/10 10:01:40;;;;;;;;;;;;;;;9.31;23.48;100218.19;4498618;31;34245;-81
2022/03/10 10:04:09;;;;;;;;;;;;;;;10.42;23.68;100213.19;4499676;31;33758;-82
2022/03/10 10:06:55;;;;;;;;;;;;;;;10.77;22.49;100214.22;4499735;31;34401;-81
2022/03/10 10:09:22;;;;;;;;;;;;;;;11.47;21.95;100211.78;4499851;31;34777;-82
2022/03/10 10:11:49;;;;;;;;;;;;;;;10.41;22.39;100232.16;4499889;31;33834;-81
2022/03/10 10:14:34;;;;;;;;;;;;;;;10.44;21.94;100234.84;4498411;31;33605;-81
2022/03/10 10:17:01;;;;;;;;;;;;;;;11.47;21.03;100224.75;4499647;31;34439;-81
2022/03/10 10:19:31;;;;;;;;;;;;;;;9.69;22.56;100238.47;4499457;31;35001;-81
2022/03/10 10:22:19;;;;;;;;;;;;;;;10.48;22.16;100240.16;4499812;31;33652;-82
2022/03/10 10:24:53;;;;;;;;;;;;;;;10.96;20.71;100231.19;4499573;31;34566;-81
2022/03/10 10:27:22;;;;;;;;;;;;;;;11.09;20.35;100222.88;4499535;31;33922;-81
2022/03/10 10:29:49;;;;;;;;;;;;;;;11.97;19.74;100225.16;4499451;31;35144;-81
2022/03/10 10:32:26;;;;;;;;;;;;;;;11.83;19.53;100219.63;4499154;31;33682;-86
2022/03/10 10:34:59;;;;;;;;;;;;;;;11.25;20.38;100236.28;4499487;31;34877;-85
2022/03/10 10:37:27;;;;;;;;;;;;;;;11.98;20.12;100225.22;4499621;31;35219;-81
2022/03/10 10:40:02;;;;;;;;;;;;;;;12.10;19.32;100215.12;4499569;31;33003;-81
2022/03/10 10:42:31;;;;;;;;;;;;;;;11.21;19.19;100227.53;4498504;31;34166;-81
2022/03/10 10:45:01;;;;;;;;;;;;;;;11.07;19.72;100227.19;4498271;31;34279;-81
2022/03/10 10:47:29;;;;;;;;;;;;;;;11.36;19.75;100219.28;4499227;31;34356;-81
2022/03/10 10:50:05;;;;;;;;;;;;;;;10.50;20.74;100227.25;4499197;31;34434;-81
2022/03/10 10:52:39;;;;;;;;;;;;;;;11.57;19.66;100230.22;4499444;31;33501;-85
2022/03/10 10:55:10;;;;;;;;;;;;;;;10.93;19.25;100229.38;4498141;31;35245;-81
2022/03/10 10:57:38;;;;;;;;;;;;;;;9.65;20.06;100235.72;4499327;31;34564;-81
2022/03/10 11:00:09;;;;;;;;;;;;;;;10.64;19.76;100222.47;4499288;31;34455;-81
2022/03/10 11:02:47;;;;;;;;;;;;;;;11.13;18.95;100232.50;4497927;31;33615;-81
2022/03/10 11:05:14;;;;;;;;;;;;;;;11.23;18.51;100235.38;4498196;31;34644;-81
2022/03/10 11:07:42;;;;;;;;;;;;;;;11.17;19.11;100231.78;4499232;31;33908;-81
2022/03/10 11:10:10;;;;;;;;;;;;;;;10.33;19.67;100233.63;4498952;31;34401;-81
2022/03/10 11:12:40;;;;;;;;;;;;;;;9.82;19.51;100238.91;4497993;31;33601;-80
2022/03/10 11:15:07;;;;;;;;;;;;;;;10.89;18.79;100234.44;4499051;31;34349;-81
2022/03/10 11:17:35;;;;;;;;;;;;;;;11.10;18.15;100229.88;4499246;31;33850;-81
2022/03/10 11:20:07;;;;;;;;;;;;;;;10.40;18.70;100231.28;4499210;31;34081;-81
2022/03/10 11:22:46;;;;;;;;;;;;;;;11.56;18.37;100219.81;4498139;31;34227;-81
2022/03/10 11:25:16;;;;;;;;;;;;;;;12.32;17.39;100220.81;4498015;31;34948;-81
2022/03/10 11:27:54;;;;;;;;;;;;;;;11.15;18.93;100217.88;4498249;31;33929;-81
2022/03/10 11:30:28;;;;;;;;;;;;;;;11.56;19.73;100225.00;4497691;31;34298;-81
2022/03/10 11:32:59;;;;;;;;;;;;;;;11.95;19.25;100214.75;4498027;31;33699;-81
2022/03/10 11:35:37;;;;;;;;;;;;;;;11.70;20.43;100223.63;4499162;31;34098;-85
2022/03/10 11:38:07;;;;;;;;;;;;;;;10.87;20.59;100228.31;4499240;31;33735;-81
2022/03/10 11:40:41;;;;;;;;;;;;;;;12.21;20.49;100227.50;4499080;31;34319;-81
2022/03/10 11:43:08;;;;;;;;;;;;;;;11.85;18.36;100210.16;4499090;31;33805;-81
2022/03/10 11:45:36;;;;;;;;;;;;;;;13.06;18.80;100205.88;4498994;31;34043;-81
2022/03/10 11:48:22;;;;;;;;;;;;;;;12.04;18.45;100204.56;4499116;31;34907;-85
2022/03/10 11:50:50;;;;;;;;;;;;;;;11.78;18.83;100218.62;4498491;31;33987;-81
2022/03/10 11:53:17;;;;;;;;;;;;;;;11.87;19.14;100198.97;4496693;31;32553;-81
2022/03/10 11:55:46;;;;;;;;;;;;;;;11.74;19.22;100203.78;4497011;31;33927;-81
2022/03/10 11:58:14;;;;;;;;;;;;;;;11.02;19.77;100207.97;4497246;31;35159;-81
2022/03/10 12:00:43;;;;;;;;;;;;;;;11.48;20.49;100203.13;4498123;31;34716;-82
2022/03/10 12:03:17;;;;;;;;;;;;;;;11.72;20.27;100205.50;4498839;31;33178;-81
2022/03/10 12:05:55;;;;;;;;;;;;;;;12.17;19.81;100198.81;4498916;31;34370;-81
2022/03/10 12:08:23;;;;;;;;;;;;;;;11.90;20.25;100200.78;4499296;31;35363;-81
2022/03/10 12:10:51;;;;;;;;;;;;;;;11.51;19.98;100200.63;4498726;31;34253;-81
2022/03/10 12:13:36;;;;;;;;;;;;;;;12.47;20.28;100207.28;4498601;31;33365;-81
2022/03/10 12:16:05;;;;;;;;;;;;;;;11.84;19.73;100200.63;4499293;31;33854;-84
2022/03/10 12:18:40;;;;;;;;;;;;;;;10.57;20.40;100199.78;4498725;31;35356;-81
2022/03/10 12:21:24;;;;;;;;;;;;;;;10.13;20.93;100207.94;4498645;31;34571;-81
2022/03/10 12:23:53;;;;;;;;;;;;;;;11.36;20.24;100193.31;4498605;31;33170;-81
2022/03/10 12:26:33;;;;;;;;;;;;;;;12.39;18.94;100187.19;4498606;31;34268;-81
2022/03/10 12:29:04;;;;;;;;;;;;;;;11.06;19.58;100186.50;4498354;31;34716;-81
2022/03/10 12:31:33;;;;;;;;;;;;;;;11.01;19.71;100176.81;4497170;31;35110;-81
2022/03/10 12:34:00;;;;;;;;;;;;;;;11.41;19.61;100191.75;4498435;31;33535;-81
2022/03/10 12:36:29;;;;;;;;;;;;;;;11.32;19.57;100201.88;4498287;31;34425;-81
2022/03/10 12:38:57;;;;;;;;;;;;;;;11.76;19.64;100183.94;4498332;31;33981;-82
2022/03/10 12:41:36;;;;;;;;;;;;;;;11.36;19.83;100182.94;4496970;31;34558;-81
2022/03/10 12:44:07;;;;;;;;;;;;;;;12.15;18.79;100182.28;4498221;31;34442;-81
2022/03/10 12:46:36;;;;;;;;;;;;;;;11.93;18.91;100180.94;4498075;31;34871;-81
2022/03/10 12:49:03;;;;;;;;;;;;;;;12.37;18.59;100193.19;4498062;31;34540;-81
2022/03/10 12:51:40;;;;;;;;;;;;;;;12.65;17.38;100190.34;4497008;31;33734;-85
2022/03/10 12:54:07;;;;;;;;;;;;;;;12.47;17.86;100183.88;4498056;31;33373;-81
2022/03/10 12:56:41;;;;;;;;;;;;;;;12.24;19.09;100193.78;4498345;31;34019;-81